Christian Sabionski

Accountable Manager AM

Head of Training HT

Kapitän ATPL (A)         

Fluglehrer FI (A) für PPL, CPL,

 IR, MCCI und FI

Prüfer CRE (A) SEP (Land) 

Werkstattmeister

 

 

 

 

 

 

 

 

Marc Kanitz

Marc Kanitz

Berufspilot CPL (A) / ATPL (A)

Fluglehrer FI (A) für PPL

CRI SEP & TMG,  Cessna SET,  ACRO

Fluglotse

 

 

 

 

 

Dr. Silke Sabionski

Silke

Compliance Monitoring +

Safety Manager

PPL (A)

Theorie Lehrerin

Ärztin

 

 

 

 

 

 

 

Dietrich Mohr                   

Beauftragter für Technik BfT

Fluglehrer PPL & SIM

Co Pilot CPL (A) / ATPL (A)

Ingenieur Luft & Raumfahrt

 

 

 

 

 

 

Dr. Winthir Brunnbauer

Fluglehrer FI IR

Language Examiner

Kapitän ATPL (A) 

Winni.png - 7.54 MB

                                               

Flugwetter Augsburg

[source: ADDS]
METAR
EDMA 080750Z 30004KT 260V330 CAVOK 22/17 Q1022 =
TAF EDMA 080500Z 0806/0815 VRB02KT CAVOK BECMG 0809/0811 04005KT
TAF
TAF EDMA 080500Z 0806/0815 VRB02KT CAVOK BECMG 0809/0811 04005KT =
Cookies erleichtern die Bereitstellung unserer Dienste. Mit der Nutzung unserer Dienste erklären Sie sich damit einverstanden, dass wir Cookies verwenden.
Weitere Informationen Ok